sensor_id;sensor_type;location;lat;lon;timestamp;P1;durP1;ratioP1;P2;durP2;ratioP2
59442;SDS011;45247;47.466;19.004;2023-07-20T00:01:42;7.80;;;4.35;;
59442;SDS011;45247;47.466;19.004;2023-07-20T00:04:11;16.05;;;5.78;;
59442;SDS011;45247;47.466;19.004;2023-07-20T00:06:39;11.57;;;5.50;;
59442;SDS011;45247;47.466;19.004;2023-07-20T00:09:08;13.15;;;4.93;;
59442;SDS011;45247;47.466;19.004;2023-07-20T00:11:37;9.93;;;4.55;;
59442;SDS011;45247;47.466;19.004;2023-07-20T00:14:07;11.90;;;4.22;;
59442;SDS011;45247;47.466;19.004;2023-07-20T00:16:35;13.30;;;4.55;;
59442;SDS011;45247;47.466;19.004;2023-07-20T00:19:03;12.13;;;5.55;;
59442;SDS011;45247;47.466;19.004;2023-07-20T00:21:33;11.13;;;4.57;;
59442;SDS011;45247;47.466;19.004;2023-07-20T00:24:01;12.68;;;4.68;;
59442;SDS011;45247;47.466;19.004;2023-07-20T00:26:29;11.02;;;4.38;;
59442;SDS011;45247;47.466;19.004;2023-07-20T00:28:58;12.07;;;4.45;;
59442;SDS011;45247;47.466;19.004;2023-07-20T00:31:27;10.32;;;4.50;;
59442;SDS011;45247;47.466;19.004;2023-07-20T00:33:56;10.00;;;4.68;;
59442;SDS011;45247;47.466;19.004;2023-07-20T00:36:24;12.35;;;5.03;;
59442;SDS011;45247;47.466;19.004;2023-07-20T00:38:52;12.45;;;3.88;;
59442;SDS011;45247;47.466;19.004;2023-07-20T00:41:21;9.65;;;4.78;;
59442;SDS011;45247;47.466;19.004;2023-07-20T00:43:49;12.13;;;4.57;;
59442;SDS011;45247;47.466;19.004;2023-07-20T00:46:17;14.95;;;4.53;;
59442;SDS011;45247;47.466;19.004;2023-07-20T00:48:47;13.38;;;5.40;;
59442;SDS011;45247;47.466;19.004;2023-07-20T00:51:15;12.02;;;4.28;;
59442;SDS011;45247;47.466;19.004;2023-07-20T00:53:44;10.48;;;4.35;;
59442;SDS011;45247;47.466;19.004;2023-07-20T00:56:12;20.17;;;4.88;;
59442;SDS011;45247;47.466;19.004;2023-07-20T00:58:40;13.57;;;4.13;;
59442;SDS011;45247;47.466;19.004;2023-07-20T01:01:08;14.73;;;4.90;;
59442;SDS011;45247;47.466;19.004;2023-07-20T01:03:37;15.18;;;4.22;;
59442;SDS011;45247;47.466;19.004;2023-07-20T01:06:09;16.77;;;5.00;;
59442;SDS011;45247;47.466;19.004;2023-07-20T01:08:43;14.18;;;5.22;;
59442;SDS011;45247;47.466;19.004;2023-07-20T01:11:20;10.43;;;4.15;;
59442;SDS011;45247;47.466;19.004;2023-07-20T01:13:55;15.13;;;5.13;;
59442;SDS011;45247;47.466;19.004;2023-07-20T01:16:24;12.00;;;4.95;;
59442;SDS011;45247;47.466;19.004;2023-07-20T01:18:52;14.20;;;5.20;;
59442;SDS011;45247;47.466;19.004;2023-07-20T01:21:23;11.50;;;5.28;;
59442;SDS011;45247;47.466;19.004;2023-07-20T01:24:05;12.45;;;4.80;;
59442;SDS011;45247;47.466;19.004;2023-07-20T01:27:00;10.63;;;4.22;;
59442;SDS011;45247;47.466;19.004;2023-07-20T01:29:55;12.30;;;4.18;;
59442;SDS011;45247;47.466;19.004;2023-07-20T01:32:56;12.80;;;4.60;;
59442;SDS011;45247;47.466;19.004;2023-07-20T01:35:27;9.07;;;4.47;;
59442;SDS011;45247;47.466;19.004;2023-07-20T01:37:57;10.15;;;4.80;;
59442;SDS011;45247;47.466;19.004;2023-07-20T01:40:27;14.25;;;4.93;;
59442;SDS011;45247;47.466;19.004;2023-07-20T01:42:56;14.45;;;4.90;;
59442;SDS011;45247;47.466;19.004;2023-07-20T01:45:24;13.75;;;4.88;;
59442;SDS011;45247;47.466;19.004;2023-07-20T01:47:53;14.88;;;5.28;;
59442;SDS011;45247;47.466;19.004;2023-07-20T01:50:23;9.30;;;4.60;;
59442;SDS011;45247;47.466;19.004;2023-07-20T01:52:51;10.70;;;5.13;;
59442;SDS011;45247;47.466;19.004;2023-07-20T01:55:19;11.30;;;5.28;;
59442;SDS011;45247;47.466;19.004;2023-07-20T01:57:47;11.95;;;4.43;;
59442;SDS011;45247;47.466;19.004;2023-07-20T02:00:15;10.63;;;4.65;;
59442;SDS011;45247;47.466;19.004;2023-07-20T02:02:45;13.65;;;4.85;;
59442;SDS011;45247;47.466;19.004;2023-07-20T02:05:13;10.50;;;4.32;;
59442;SDS011;45247;47.466;19.004;2023-07-20T02:07:43;8.70;;;4.25;;
59442;SDS011;45247;47.466;19.004;2023-07-20T02:10:11;11.30;;;5.00;;
59442;SDS011;45247;47.466;19.004;2023-07-20T02:12:39;11.73;;;5.00;;
59442;SDS011;45247;47.466;19.004;2023-07-20T02:15:08;14.15;;;4.68;;
59442;SDS011;45247;47.466;19.004;2023-07-20T02:17:37;11.73;;;4.38;;
59442;SDS011;45247;47.466;19.004;2023-07-20T02:20:07;14.18;;;4.40;;
59442;SDS011;45247;47.466;19.004;2023-07-20T02:22:36;11.02;;;4.43;;
59442;SDS011;45247;47.466;19.004;2023-07-20T02:25:07;15.88;;;4.50;;
59442;SDS011;45247;47.466;19.004;2023-07-20T02:27:36;11.20;;;4.68;;
59442;SDS011;45247;47.466;19.004;2023-07-20T02:30:06;12.48;;;4.85;;
59442;SDS011;45247;47.466;19.004;2023-07-20T02:32:36;8.45;;;4.25;;
59442;SDS011;45247;47.466;19.004;2023-07-20T02:35:04;12.82;;;4.50;;
59442;SDS011;45247;47.466;19.004;2023-07-20T02:37:33;15.95;;;4.72;;
59442;SDS011;45247;47.466;19.004;2023-07-20T02:40:03;19.80;;;4.97;;
59442;SDS011;45247;47.466;19.004;2023-07-20T02:42:35;10.55;;;4.32;;
59442;SDS011;45247;47.466;19.004;2023-07-20T02:45:03;7.30;;;4.47;;
59442;SDS011;45247;47.466;19.004;2023-07-20T02:47:32;9.05;;;4.15;;
59442;SDS011;45247;47.466;19.004;2023-07-20T02:50:01;9.90;;;4.75;;
59442;SDS011;45247;47.466;19.004;2023-07-20T02:52:29;10.70;;;4.43;;
59442;SDS011;45247;47.466;19.004;2023-07-20T02:54:57;8.63;;;4.50;;
59442;SDS011;45247;47.466;19.004;2023-07-20T02:57:25;13.80;;;4.78;;
59442;SDS011;45247;47.466;19.004;2023-07-20T02:59:55;12.40;;;5.22;;
59442;SDS011;45247;47.466;19.004;2023-07-20T03:02:23;14.85;;;4.47;;
59442;SDS011;45247;47.466;19.004;2023-07-20T03:04:51;17.63;;;4.53;;
59442;SDS011;45247;47.466;19.004;2023-07-20T03:07:20;8.10;;;4.50;;
59442;SDS011;45247;47.466;19.004;2023-07-20T03:09:48;12.52;;;3.95;;
59442;SDS011;45247;47.466;19.004;2023-07-20T03:12:17;10.23;;;4.07;;
59442;SDS011;45247;47.466;19.004;2023-07-20T03:14:45;16.73;;;4.40;;
59442;SDS011;45247;47.466;19.004;2023-07-20T03:17:15;9.88;;;4.47;;
59442;SDS011;45247;47.466;19.004;2023-07-20T03:19:43;11.40;;;4.20;;
59442;SDS011;45247;47.466;19.004;2023-07-20T03:22:11;10.55;;;4.53;;
59442;SDS011;45247;47.466;19.004;2023-07-20T03:24:39;11.63;;;4.00;;
59442;SDS011;45247;47.466;19.004;2023-07-20T03:27:08;9.65;;;4.45;;
59442;SDS011;45247;47.466;19.004;2023-07-20T03:29:36;9.25;;;4.28;;
59442;SDS011;45247;47.466;19.004;2023-07-20T03:32:04;7.25;;;3.88;;
59442;SDS011;45247;47.466;19.004;2023-07-20T03:34:34;11.75;;;3.97;;
59442;SDS011;45247;47.466;19.004;2023-07-20T03:37:02;7.05;;;4.00;;
59442;SDS011;45247;47.466;19.004;2023-07-20T03:39:31;12.02;;;4.45;;
59442;SDS011;45247;47.466;19.004;2023-07-20T03:42:00;10.65;;;4.18;;
59442;SDS011;45247;47.466;19.004;2023-07-20T03:44:28;8.90;;;4.00;;
59442;SDS011;45247;47.466;19.004;2023-07-20T03:46:57;12.20;;;4.20;;
59442;SDS011;45247;47.466;19.004;2023-07-20T03:49:25;12.95;;;5.25;;
59442;SDS011;45247;47.466;19.004;2023-07-20T03:51:54;7.68;;;4.10;;
59442;SDS011;45247;47.466;19.004;2023-07-20T03:54:22;6.57;;;3.97;;
59442;SDS011;45247;47.466;19.004;2023-07-20T03:56:51;8.73;;;3.72;;
59442;SDS011;45247;47.466;19.004;2023-07-20T03:59:19;10.63;;;4.55;;
59442;SDS011;45247;47.466;19.004;2023-07-20T04:01:47;10.18;;;4.28;;
59442;SDS011;45247;47.466;19.004;2023-07-20T04:04:16;7.93;;;4.07;;
59442;SDS011;45247;47.466;19.004;2023-07-20T04:06:44;7.53;;;3.75;;
59442;SDS011;45247;47.466;19.004;2023-07-20T04:09:13;8.95;;;3.90;;
59442;SDS011;45247;47.466;19.004;2023-07-20T04:11:41;11.60;;;4.32;;
59442;SDS011;45247;47.466;19.004;2023-07-20T04:14:09;11.07;;;4.03;;
59442;SDS011;45247;47.466;19.004;2023-07-20T04:16:37;9.40;;;4.03;;
59442;SDS011;45247;47.466;19.004;2023-07-20T04:19:05;13.77;;;4.80;;
59442;SDS011;45247;47.466;19.004;2023-07-20T04:21:39;11.43;;;4.40;;
59442;SDS011;45247;47.466;19.004;2023-07-20T04:24:08;13.63;;;4.50;;
59442;SDS011;45247;47.466;19.004;2023-07-20T04:26:38;13.57;;;4.55;;
59442;SDS011;45247;47.466;19.004;2023-07-20T04:29:06;9.43;;;3.97;;
59442;SDS011;45247;47.466;19.004;2023-07-20T04:31:34;10.25;;;5.40;;
59442;SDS011;45247;47.466;19.004;2023-07-20T04:34:02;12.80;;;4.95;;
59442;SDS011;45247;47.466;19.004;2023-07-20T04:36:30;10.77;;;4.82;;
59442;SDS011;45247;47.466;19.004;2023-07-20T04:38:58;13.45;;;4.25;;
59442;SDS011;45247;47.466;19.004;2023-07-20T04:41:27;11.77;;;4.65;;
59442;SDS011;45247;47.466;19.004;2023-07-20T04:43:57;10.52;;;4.63;;
59442;SDS011;45247;47.466;19.004;2023-07-20T04:46:25;7.97;;;4.68;;
59442;SDS011;45247;47.466;19.004;2023-07-20T04:48:54;12.55;;;5.00;;
59442;SDS011;45247;47.466;19.004;2023-07-20T04:51:22;9.38;;;4.07;;
59442;SDS011;45247;47.466;19.004;2023-07-20T04:53:50;11.15;;;4.50;;
59442;SDS011;45247;47.466;19.004;2023-07-20T04:56:18;12.65;;;4.30;;
59442;SDS011;45247;47.466;19.004;2023-07-20T04:58:50;8.18;;;4.28;;
59442;SDS011;45247;47.466;19.004;2023-07-20T05:01:19;7.15;;;3.72;;
59442;SDS011;45247;47.466;19.004;2023-07-20T05:03:47;7.88;;;4.15;;
59442;SDS011;45247;47.466;19.004;2023-07-20T05:06:17;8.15;;;3.90;;
59442;SDS011;45247;47.466;19.004;2023-07-20T05:08:45;10.35;;;3.85;;
59442;SDS011;45247;47.466;19.004;2023-07-20T05:11:13;7.93;;;4.35;;
59442;SDS011;45247;47.466;19.004;2023-07-20T05:13:42;9.73;;;4.18;;
59442;SDS011;45247;47.466;19.004;2023-07-20T05:16:10;8.70;;;4.53;;
59442;SDS011;45247;47.466;19.004;2023-07-20T05:18:40;10.07;;;5.03;;
59442;SDS011;45247;47.466;19.004;2023-07-20T05:21:08;11.02;;;4.70;;
59442;SDS011;45247;47.466;19.004;2023-07-20T05:23:36;10.05;;;4.25;;
59442;SDS011;45247;47.466;19.004;2023-07-20T05:26:04;9.50;;;4.93;;
59442;SDS011;45247;47.466;19.004;2023-07-20T05:28:32;10.05;;;5.00;;
59442;SDS011;45247;47.466;19.004;2023-07-20T05:31:02;9.80;;;4.57;;
59442;SDS011;45247;47.466;19.004;2023-07-20T05:33:30;10.23;;;5.40;;
59442;SDS011;45247;47.466;19.004;2023-07-20T05:36:00;9.20;;;4.72;;
59442;SDS011;45247;47.466;19.004;2023-07-20T05:38:28;11.55;;;5.35;;
59442;SDS011;45247;47.466;19.004;2023-07-20T05:40:59;8.85;;;5.38;;
59442;SDS011;45247;47.466;19.004;2023-07-20T05:43:28;9.98;;;5.13;;
59442;SDS011;45247;47.466;19.004;2023-07-20T05:45:56;11.02;;;5.00;;
59442;SDS011;45247;47.466;19.004;2023-07-20T05:48:24;9.38;;;5.43;;
59442;SDS011;45247;47.466;19.004;2023-07-20T05:50:53;10.02;;;5.22;;
59442;SDS011;45247;47.466;19.004;2023-07-20T05:53:22;14.65;;;5.95;;
59442;SDS011;45247;47.466;19.004;2023-07-20T05:55:54;13.30;;;6.25;;
59442;SDS011;45247;47.466;19.004;2023-07-20T05:58:22;9.45;;;5.55;;
59442;SDS011;45247;47.466;19.004;2023-07-20T06:00:51;18.05;;;5.97;;
59442;SDS011;45247;47.466;19.004;2023-07-20T06:03:19;20.10;;;5.97;;
59442;SDS011;45247;47.466;19.004;2023-07-20T06:05:48;17.08;;;5.47;;
59442;SDS011;45247;47.466;19.004;2023-07-20T06:08:16;13.88;;;5.53;;
59442;SDS011;45247;47.466;19.004;2023-07-20T06:10:49;15.13;;;5.85;;
59442;SDS011;45247;47.466;19.004;2023-07-20T06:13:18;9.90;;;5.70;;
59442;SDS011;45247;47.466;19.004;2023-07-20T06:15:46;12.07;;;5.32;;
59442;SDS011;45247;47.466;19.004;2023-07-20T06:18:15;14.85;;;5.47;;
59442;SDS011;45247;47.466;19.004;2023-07-20T06:20:48;18.08;;;5.47;;
59442;SDS011;45247;47.466;19.004;2023-07-20T06:23:17;15.25;;;5.60;;
59442;SDS011;45247;47.466;19.004;2023-07-20T06:25:46;14.93;;;5.93;;
59442;SDS011;45247;47.466;19.004;2023-07-20T06:28:15;12.70;;;5.30;;
59442;SDS011;45247;47.466;19.004;2023-07-20T06:30:44;14.27;;;5.93;;
59442;SDS011;45247;47.466;19.004;2023-07-20T06:33:12;11.40;;;4.72;;
59442;SDS011;45247;47.466;19.004;2023-07-20T06:35:41;12.52;;;5.30;;
59442;SDS011;45247;47.466;19.004;2023-07-20T06:38:10;13.43;;;5.35;;
59442;SDS011;45247;47.466;19.004;2023-07-20T06:40:41;10.97;;;5.07;;
59442;SDS011;45247;47.466;19.004;2023-07-20T06:43:10;9.93;;;6.18;;
59442;SDS011;45247;47.466;19.004;2023-07-20T06:45:42;13.13;;;5.47;;
59442;SDS011;45247;47.466;19.004;2023-07-20T06:48:10;13.82;;;5.75;;
59442;SDS011;45247;47.466;19.004;2023-07-20T06:50:38;14.23;;;5.85;;
59442;SDS011;45247;47.466;19.004;2023-07-20T06:53:06;14.18;;;5.93;;
59442;SDS011;45247;47.466;19.004;2023-07-20T06:55:34;11.20;;;5.72;;
59442;SDS011;45247;47.466;19.004;2023-07-20T06:58:08;10.02;;;5.30;;
59442;SDS011;45247;47.466;19.004;2023-07-20T07:00:37;12.13;;;5.63;;
59442;SDS011;45247;47.466;19.004;2023-07-20T07:03:06;13.55;;;5.57;;
59442;SDS011;45247;47.466;19.004;2023-07-20T07:05:35;21.52;;;5.82;;
59442;SDS011;45247;47.466;19.004;2023-07-20T07:08:04;10.57;;;5.00;;
59442;SDS011;45247;47.466;19.004;2023-07-20T07:10:34;11.20;;;5.38;;
59442;SDS011;45247;47.466;19.004;2023-07-20T07:13:03;14.73;;;5.55;;
59442;SDS011;45247;47.466;19.004;2023-07-20T07:15:31;10.63;;;5.28;;
59442;SDS011;45247;47.466;19.004;2023-07-20T07:18:01;12.25;;;4.88;;
59442;SDS011;45247;47.466;19.004;2023-07-20T07:20:30;10.57;;;4.93;;
59442;SDS011;45247;47.466;19.004;2023-07-20T07:22:58;9.02;;;4.93;;
59442;SDS011;45247;47.466;19.004;2023-07-20T07:25:27;9.55;;;4.65;;
59442;SDS011;45247;47.466;19.004;2023-07-20T07:27:55;10.93;;;5.40;;
59442;SDS011;45247;47.466;19.004;2023-07-20T07:30:23;19.25;;;5.22;;
59442;SDS011;45247;47.466;19.004;2023-07-20T07:32:51;13.95;;;4.40;;
59442;SDS011;45247;47.466;19.004;2023-07-20T07:35:21;9.57;;;4.45;;
59442;SDS011;45247;47.466;19.004;2023-07-20T07:37:49;12.07;;;4.78;;
59442;SDS011;45247;47.466;19.004;2023-07-20T07:40:37;13.73;;;4.75;;
59442;SDS011;45247;47.466;19.004;2023-07-20T07:43:06;11.82;;;5.50;;
59442;SDS011;45247;47.466;19.004;2023-07-20T07:45:35;11.95;;;5.22;;
59442;SDS011;45247;47.466;19.004;2023-07-20T07:48:04;14.07;;;4.93;;
59442;SDS011;45247;47.466;19.004;2023-07-20T07:50:34;13.05;;;5.35;;
59442;SDS011;45247;47.466;19.004;2023-07-20T07:53:02;12.32;;;5.05;;
59442;SDS011;45247;47.466;19.004;2023-07-20T07:55:30;8.27;;;4.47;;
59442;SDS011;45247;47.466;19.004;2023-07-20T07:57:59;12.52;;;5.22;;
59442;SDS011;45247;47.466;19.004;2023-07-20T08:00:27;11.80;;;5.05;;
59442;SDS011;45247;47.466;19.004;2023-07-20T08:02:55;11.38;;;4.55;;
59442;SDS011;45247;47.466;19.004;2023-07-20T08:05:24;12.80;;;4.78;;
59442;SDS011;45247;47.466;19.004;2023-07-20T08:07:54;9.75;;;4.32;;
59442;SDS011;45247;47.466;19.004;2023-07-20T08:10:22;11.95;;;4.85;;
59442;SDS011;45247;47.466;19.004;2023-07-20T08:12:50;13.23;;;4.78;;
59442;SDS011;45247;47.466;19.004;2023-07-20T08:15:18;10.88;;;4.80;;
59442;SDS011;45247;47.466;19.004;2023-07-20T08:17:46;13.60;;;5.18;;
59442;SDS011;45247;47.466;19.004;2023-07-20T08:20:18;12.20;;;4.68;;
59442;SDS011;45247;47.466;19.004;2023-07-20T08:22:50;9.82;;;4.60;;
59442;SDS011;45247;47.466;19.004;2023-07-20T08:25:20;13.98;;;4.50;;
59442;SDS011;45247;47.466;19.004;2023-07-20T08:27:48;10.43;;;5.10;;
59442;SDS011;45247;47.466;19.004;2023-07-20T08:30:16;9.60;;;4.75;;
59442;SDS011;45247;47.466;19.004;2023-07-20T08:32:45;8.98;;;4.28;;
59442;SDS011;45247;47.466;19.004;2023-07-20T08:35:14;16.02;;;4.40;;
59442;SDS011;45247;47.466;19.004;2023-07-20T08:37:42;15.68;;;4.32;;
59442;SDS011;45247;47.466;19.004;2023-07-20T08:40:10;7.90;;;4.05;;
59442;SDS011;45247;47.466;19.004;2023-07-20T08:42:43;10.90;;;5.05;;
59442;SDS011;45247;47.466;19.004;2023-07-20T08:45:12;18.15;;;4.15;;
59442;SDS011;45247;47.466;19.004;2023-07-20T08:47:41;12.77;;;3.97;;
59442;SDS011;45247;47.466;19.004;2023-07-20T08:50:11;22.17;;;4.40;;
59442;SDS011;45247;47.466;19.004;2023-07-20T08:52:41;7.35;;;4.38;;
59442;SDS011;45247;47.466;19.004;2023-07-20T08:55:09;16.90;;;4.68;;
59442;SDS011;45247;47.466;19.004;2023-07-20T08:57:38;12.40;;;4.22;;
59442;SDS011;45247;47.466;19.004;2023-07-20T09:00:11;9.77;;;3.83;;
59442;SDS011;45247;47.466;19.004;2023-07-20T09:05:10;12.68;;;4.18;;
59442;SDS011;45247;47.466;19.004;2023-07-20T09:07:40;12.90;;;4.05;;
59442;SDS011;45247;47.466;19.004;2023-07-20T09:10:09;15.57;;;4.53;;
59442;SDS011;45247;47.466;19.004;2023-07-20T09:12:39;11.98;;;4.18;;
59442;SDS011;45247;47.466;19.004;2023-07-20T09:15:11;10.95;;;3.95;;
59442;SDS011;45247;47.466;19.004;2023-07-20T09:17:39;8.07;;;3.63;;
59442;SDS011;45247;47.466;19.004;2023-07-20T09:20:14;7.55;;;3.88;;
59442;SDS011;45247;47.466;19.004;2023-07-20T09:22:46;9.05;;;3.88;;
59442;SDS011;45247;47.466;19.004;2023-07-20T09:25:16;13.55;;;3.72;;
59442;SDS011;45247;47.466;19.004;2023-07-20T09:30:19;9.43;;;3.88;;
59442;SDS011;45247;47.466;19.004;2023-07-20T09:32:57;8.85;;;5.30;;
59442;SDS011;45247;47.466;19.004;2023-07-20T09:35:26;12.15;;;4.57;;
59442;SDS011;45247;47.466;19.004;2023-07-20T09:38:07;11.13;;;4.17;;
59442;SDS011;45247;47.466;19.004;2023-07-20T09:40:38;10.50;;;4.10;;
59442;SDS011;45247;47.466;19.004;2023-07-20T09:43:11;9.70;;;3.80;;
59442;SDS011;45247;47.466;19.004;2023-07-20T09:45:43;10.97;;;4.23;;
59442;SDS011;45247;47.466;19.004;2023-07-20T09:48:14;11.70;;;4.03;;
59442;SDS011;45247;47.466;19.004;2023-07-20T09:50:48;10.48;;;3.47;;
59442;SDS011;45247;47.466;19.004;2023-07-20T09:53:18;8.63;;;3.40;;
59442;SDS011;45247;47.466;19.004;2023-07-20T09:55:47;12.63;;;3.85;;
59442;SDS011;45247;47.466;19.004;2023-07-20T09:58:16;9.98;;;3.90;;
59442;SDS011;45247;47.466;19.004;2023-07-20T10:00:46;14.68;;;4.00;;
59442;SDS011;45247;47.466;19.004;2023-07-20T10:03:20;7.45;;;4.10;;
59442;SDS011;45247;47.466;19.004;2023-07-20T10:05:52;7.30;;;3.35;;
59442;SDS011;45247;47.466;19.004;2023-07-20T10:08:24;10.43;;;3.60;;
59442;SDS011;45247;47.466;19.004;2023-07-20T10:13:25;12.13;;;3.92;;
59442;SDS011;45247;47.466;19.004;2023-07-20T10:15:58;8.18;;;3.65;;
59442;SDS011;45247;47.466;19.004;2023-07-20T10:18:30;9.95;;;3.80;;
59442;SDS011;45247;47.466;19.004;2023-07-20T10:21:01;13.23;;;3.35;;
59442;SDS011;45247;47.466;19.004;2023-07-20T10:23:34;16.50;;;4.60;;
59442;SDS011;45247;47.466;19.004;2023-07-20T10:26:03;13.27;;;4.07;;
59442;SDS011;45247;47.466;19.004;2023-07-20T10:28:36;16.42;;;5.20;;
59442;SDS011;45247;47.466;19.004;2023-07-20T10:31:08;9.98;;;3.65;;
59442;SDS011;45247;47.466;19.004;2023-07-20T10:33:38;16.10;;;4.00;;
59442;SDS011;45247;47.466;19.004;2023-07-20T10:36:07;9.45;;;3.92;;
59442;SDS011;45247;47.466;19.004;2023-07-20T10:38:38;10.27;;;3.75;;
59442;SDS011;45247;47.466;19.004;2023-07-20T10:41:17;6.97;;;4.00;;
59442;SDS011;45247;47.466;19.004;2023-07-20T10:43:46;8.20;;;3.72;;
59442;SDS011;45247;47.466;19.004;2023-07-20T10:46:16;14.57;;;4.20;;
59442;SDS011;45247;47.466;19.004;2023-07-20T10:49:03;9.75;;;4.03;;
59442;SDS011;45247;47.466;19.004;2023-07-20T10:51:38;14.00;;;4.70;;
59442;SDS011;45247;47.466;19.004;2023-07-20T10:54:08;11.18;;;4.82;;
59442;SDS011;45247;47.466;19.004;2023-07-20T10:56:36;13.65;;;4.63;;
59442;SDS011;45247;47.466;19.004;2023-07-20T10:59:17;13.70;;;4.55;;
59442;SDS011;45247;47.466;19.004;2023-07-20T11:01:48;7.57;;;4.18;;
59442;SDS011;45247;47.466;19.004;2023-07-20T11:04:16;12.82;;;4.10;;
59442;SDS011;45247;47.466;19.004;2023-07-20T11:06:46;12.45;;;3.25;;
59442;SDS011;45247;47.466;19.004;2023-07-20T11:09:22;12.38;;;4.07;;
59442;SDS011;45247;47.466;19.004;2023-07-20T11:11:54;12.88;;;3.55;;
59442;SDS011;45247;47.466;19.004;2023-07-20T11:14:39;10.80;;;3.88;;
59442;SDS011;45247;47.466;19.004;2023-07-20T11:17:14;17.42;;;4.25;;
59442;SDS011;45247;47.466;19.004;2023-07-20T11:19:47;11.38;;;3.50;;
59442;SDS011;45247;47.466;19.004;2023-07-20T11:22:19;12.77;;;4.25;;
59442;SDS011;45247;47.466;19.004;2023-07-20T11:24:48;7.60;;;3.42;;
59442;SDS011;45247;47.466;19.004;2023-07-20T11:27:17;8.80;;;3.33;;
59442;SDS011;45247;47.466;19.004;2023-07-20T11:29:48;10.98;;;3.60;;
59442;SDS011;45247;47.466;19.004;2023-07-20T11:32:21;12.73;;;3.50;;
59442;SDS011;45247;47.466;19.004;2023-07-20T11:34:50;11.60;;;3.78;;
59442;SDS011;45247;47.466;19.004;2023-07-20T11:37:18;6.68;;;3.30;;
59442;SDS011;45247;47.466;19.004;2023-07-20T11:39:46;13.50;;;3.80;;
59442;SDS011;45247;47.466;19.004;2023-07-20T11:42:15;13.70;;;4.03;;
59442;SDS011;45247;47.466;19.004;2023-07-20T11:44:51;9.55;;;3.25;;
59442;SDS011;45247;47.466;19.004;2023-07-20T11:47:21;9.85;;;3.83;;
59442;SDS011;45247;47.466;19.004;2023-07-20T11:49:49;13.10;;;3.70;;
59442;SDS011;45247;47.466;19.004;2023-07-20T11:52:22;12.88;;;4.00;;
59442;SDS011;45247;47.466;19.004;2023-07-20T11:54:51;9.55;;;3.35;;
59442;SDS011;45247;47.466;19.004;2023-07-20T11:57:20;7.03;;;3.35;;
59442;SDS011;45247;47.466;19.004;2023-07-20T11:59:54;11.02;;;3.80;;
59442;SDS011;45247;47.466;19.004;2023-07-20T12:02:26;10.15;;;3.38;;
59442;SDS011;45247;47.466;19.004;2023-07-20T12:04:55;10.17;;;3.50;;
59442;SDS011;45247;47.466;19.004;2023-07-20T12:07:25;11.45;;;3.63;;
59442;SDS011;45247;47.466;19.004;2023-07-20T12:10:04;10.73;;;3.67;;
59442;SDS011;45247;47.466;19.004;2023-07-20T12:12:34;10.48;;;3.70;;
59442;SDS011;45247;47.466;19.004;2023-07-20T12:15:14;9.80;;;3.40;;
59442;SDS011;45247;47.466;19.004;2023-07-20T12:17:44;7.68;;;3.50;;
59442;SDS011;45247;47.466;19.004;2023-07-20T12:20:13;13.32;;;4.20;;
59442;SDS011;45247;47.466;19.004;2023-07-20T12:22:55;10.20;;;3.50;;
59442;SDS011;45247;47.466;19.004;2023-07-20T12:25:32;14.68;;;3.65;;
59442;SDS011;45247;47.466;19.004;2023-07-20T12:28:01;13.25;;;3.60;;
59442;SDS011;45247;47.466;19.004;2023-07-20T12:30:30;6.72;;;3.80;;
59442;SDS011;45247;47.466;19.004;2023-07-20T12:32:59;8.85;;;3.28;;
59442;SDS011;45247;47.466;19.004;2023-07-20T12:35:28;9.45;;;3.55;;
59442;SDS011;45247;47.466;19.004;2023-07-20T12:37:57;12.05;;;4.60;;
59442;SDS011;45247;47.466;19.004;2023-07-20T12:40:26;10.75;;;3.03;;
59442;SDS011;45247;47.466;19.004;2023-07-20T12:42:54;7.25;;;3.20;;
59442;SDS011;45247;47.466;19.004;2023-07-20T12:45:23;7.13;;;2.80;;
59442;SDS011;45247;47.466;19.004;2023-07-20T12:47:51;6.63;;;2.72;;
59442;SDS011;45247;47.466;19.004;2023-07-20T12:50:21;9.40;;;3.10;;
59442;SDS011;45247;47.466;19.004;2023-07-20T12:52:49;9.38;;;3.25;;
59442;SDS011;45247;47.466;19.004;2023-07-20T12:55:17;11.63;;;3.60;;
59442;SDS011;45247;47.466;19.004;2023-07-20T12:57:46;5.70;;;2.80;;
59442;SDS011;45247;47.466;19.004;2023-07-20T13:00:14;8.70;;;3.15;;
59442;SDS011;45247;47.466;19.004;2023-07-20T13:02:43;13.40;;;3.50;;
59442;SDS011;45247;47.466;19.004;2023-07-20T13:05:12;11.73;;;3.33;;
59442;SDS011;45247;47.466;19.004;2023-07-20T13:07:42;8.38;;;3.05;;
59442;SDS011;45247;47.466;19.004;2023-07-20T13:10:13;7.50;;;2.83;;
59442;SDS011;45247;47.466;19.004;2023-07-20T13:12:41;11.82;;;3.47;;
59442;SDS011;45247;47.466;19.004;2023-07-20T13:15:10;9.18;;;3.00;;
59442;SDS011;45247;47.466;19.004;2023-07-20T13:17:39;15.00;;;3.10;;
59442;SDS011;45247;47.466;19.004;2023-07-20T13:20:07;9.35;;;3.47;;
59442;SDS011;45247;47.466;19.004;2023-07-20T13:22:37;8.82;;;3.50;;
59442;SDS011;45247;47.466;19.004;2023-07-20T13:25:08;9.43;;;3.53;;
59442;SDS011;45247;47.466;19.004;2023-07-20T13:27:37;11.65;;;3.50;;
59442;SDS011;45247;47.466;19.004;2023-07-20T13:30:05;9.57;;;3.30;;
59442;SDS011;45247;47.466;19.004;2023-07-20T13:32:36;6.38;;;3.40;;
59442;SDS011;45247;47.466;19.004;2023-07-20T13:35:09;7.25;;;3.08;;
59442;SDS011;45247;47.466;19.004;2023-07-20T13:37:38;15.02;;;3.10;;
59442;SDS011;45247;47.466;19.004;2023-07-20T13:40:08;8.82;;;3.45;;
59442;SDS011;45247;47.466;19.004;2023-07-20T13:42:39;7.55;;;3.38;;
59442;SDS011;45247;47.466;19.004;2023-07-20T13:45:08;7.45;;;3.03;;
59442;SDS011;45247;47.466;19.004;2023-07-20T13:47:36;8.05;;;2.47;;
59442;SDS011;45247;47.466;19.004;2023-07-20T13:50:05;13.13;;;3.38;;
59442;SDS011;45247;47.466;19.004;2023-07-20T13:52:50;24.40;;;3.50;;
59442;SDS011;45247;47.466;19.004;2023-07-20T13:55:40;6.05;;;2.83;;
59442;SDS011;45247;47.466;19.004;2023-07-20T13:58:11;10.68;;;3.25;;
59442;SDS011;45247;47.466;19.004;2023-07-20T14:00:39;11.15;;;3.53;;
59442;SDS011;45247;47.466;19.004;2023-07-20T14:03:08;5.68;;;3.15;;
59442;SDS011;45247;47.466;19.004;2023-07-20T14:05:39;10.57;;;2.92;;
59442;SDS011;45247;47.466;19.004;2023-07-20T14:08:10;7.00;;;3.03;;
59442;SDS011;45247;47.466;19.004;2023-07-20T14:10:40;7.90;;;3.00;;
59442;SDS011;45247;47.466;19.004;2023-07-20T14:13:11;7.53;;;2.97;;
59442;SDS011;45247;47.466;19.004;2023-07-20T14:15:39;5.68;;;2.90;;
59442;SDS011;45247;47.466;19.004;2023-07-20T14:18:07;6.78;;;3.08;;
59442;SDS011;45247;47.466;19.004;2023-07-20T14:20:36;6.57;;;3.50;;
59442;SDS011;45247;47.466;19.004;2023-07-20T14:23:05;6.60;;;3.20;;
59442;SDS011;45247;47.466;19.004;2023-07-20T14:25:33;11.82;;;3.15;;
59442;SDS011;45247;47.466;19.004;2023-07-20T14:28:05;5.53;;;3.15;;
59442;SDS011;45247;47.466;19.004;2023-07-20T14:30:33;9.40;;;2.85;;
59442;SDS011;45247;47.466;19.004;2023-07-20T14:33:01;10.35;;;3.55;;
59442;SDS011;45247;47.466;19.004;2023-07-20T14:35:29;6.75;;;2.95;;
59442;SDS011;45247;47.466;19.004;2023-07-20T14:37:58;6.75;;;3.13;;
59442;SDS011;45247;47.466;19.004;2023-07-20T14:40:26;5.95;;;2.67;;
59442;SDS011;45247;47.466;19.004;2023-07-20T14:42:54;5.20;;;2.90;;
59442;SDS011;45247;47.466;19.004;2023-07-20T14:45:24;9.25;;;3.08;;
59442;SDS011;45247;47.466;19.004;2023-07-20T14:47:52;7.70;;;3.10;;
59442;SDS011;45247;47.466;19.004;2023-07-20T14:50:21;8.88;;;3.25;;